Time;durP1;ratioP1;P1;durP2;ratioP2;P2;SDS_P1;SDS_P2;PMS_P1;PMS_P2;Temp;Humidity;BMP_temperature;BMP_pressure;BME280_temperature;BME280_humidity;BME280_pressure;Samples;Min_cycle;Max_cycle;Signal;HPM_P1;HPM_P2
2022/12/05 00:02:23;;;;;;;23.80;13.15;;;;;;;;;;6225919;22;20095;-91
2022/12/05 00:04:49;;;;;;;26.98;14.05;;;;;;;;;;6227345;22;20019;-91
2022/12/05 00:07:15;;;;;;;27.63;15.45;;;;;;;;;;6226194;22;20471;-91
2022/12/05 00:09:41;;;;;;;24.85;14.00;;;;;;;;;;6251095;22;20015;-91
2022/12/05 00:12:07;;;;;;;22.45;13.75;;;;;;;;;;6225951;22;20022;-91
2022/12/05 00:14:33;;;;;;;26.45;14.30;;;;;;;;;;6225869;22;20061;-90
2022/12/05 00:16:59;;;;;;;24.65;13.88;;;;;;;;;;6196271;23;20020;-90
2022/12/05 00:19:25;;;;;;;24.02;13.35;;;;;;;;;;6196684;23;20016;-91
2022/12/05 00:21:51;;;;;;;22.10;12.88;;;;;;;;;;6195724;23;20016;-91
2022/12/05 00:24:18;;;;;;;27.05;13.63;;;;;;;;;;6195476;23;20055;-91
2022/12/05 00:26:45;;;;;;;22.15;13.93;;;;;;;;;;6195628;23;20012;-91
2022/12/05 00:29:11;;;;;;;22.77;13.60;;;;;;;;;;6220548;23;20016;-90
2022/12/05 00:31:37;;;;;;;23.63;13.80;;;;;;;;;;6195390;23;20023;-90
2022/12/05 00:34:03;;;;;;;31.90;15.70;;;;;;;;;;6195950;23;20020;-90
2022/12/05 00:36:30;;;;;;;23.52;14.57;;;;;;;;;;6195187;23;20359;-90
2022/12/05 00:38:59;;;;;;;28.98;16.40;;;;;;;;;;6195417;23;20099;-90
2022/12/05 00:41:26;;;;;;;27.30;15.57;;;;;;;;;;6195327;23;20012;-90
2022/12/05 00:43:52;;;;;;;28.40;16.10;;;;;;;;;;6195376;23;20079;-91
2022/12/05 00:46:19;;;;;;;30.67;16.27;;;;;;;;;;6195329;23;20099;-92
2022/12/05 00:48:45;;;;;;;25.77;16.25;;;;;;;;;;6195275;23;20020;-91
2022/12/05 00:51:14;;;;;;;26.27;15.30;;;;;;;;;;6194867;23;20016;-91
2022/12/05 00:53:40;;;;;;;26.70;15.75;;;;;;;;;;6196315;23;20062;-90
2022/12/05 00:56:08;;;;;;;24.08;15.65;;;;;;;;;;6195219;23;20074;-90
2022/12/05 00:58:34;;;;;;;26.80;16.98;;;;;;;;;;6195513;23;20012;-91
2022/12/05 01:01:14;;;;;;;33.10;17.25;;;;;;;;;;6196463;23;20016;-90
2022/12/05 01:03:40;;;;;;;30.70;16.70;;;;;;;;;;6195669;23;20023;-90
2022/12/05 01:06:06;;;;;;;27.15;17.25;;;;;;;;;;6195338;23;20018;-90
2022/12/05 01:08:33;;;;;;;31.98;16.80;;;;;;;;;;6220030;23;20020;-90
2022/12/05 01:11:00;;;;;;;32.45;16.92;;;;;;;;;;6220182;23;20062;-92
2022/12/05 01:13:26;;;;;;;33.75;17.40;;;;;;;;;;6195481;23;20020;-92
2022/12/05 01:15:52;;;;;;;25.27;15.10;;;;;;;;;;6210604;22;20019;-91
2022/12/05 01:18:19;;;;;;;25.17;15.70;;;;;;;;;;6250884;22;20023;-92
2022/12/05 01:20:45;;;;;;;23.98;14.60;;;;;;;;;;6251354;22;20015;-91
2022/12/05 01:23:12;;;;;;;27.80;14.48;;;;;;;;;;6226349;22;20051;-90
2022/12/05 01:25:42;;;;;;;26.95;14.38;;;;;;;;;;6224905;22;20081;-91
2022/12/05 01:28:08;;;;;;;20.85;12.32;;;;;;;;;;6225252;22;20043;-90
2022/12/05 01:30:41;;;;;;;23.65;13.82;;;;;;;;;;6250667;22;20089;-91
2022/12/05 01:33:08;;;;;;;20.73;11.85;;;;;;;;;;6250427;22;20097;-90
2022/12/05 01:35:35;;;;;;;20.30;13.15;;;;;;;;;;6225237;22;20016;-93
2022/12/05 01:38:01;;;;;;;22.27;12.32;;;;;;;;;;6224887;22;20015;-90
2022/12/05 01:40:27;;;;;;;20.05;12.05;;;;;;;;;;6225180;22;20019;-91
2022/12/05 01:42:54;;;;;;;21.33;12.30;;;;;;;;;;6250771;22;20023;-89
2022/12/05 01:45:32;;;;;;;21.52;11.73;;;;;;;;;;6225072;22;20043;-90
2022/12/05 01:47:59;;;;;;;19.40;11.57;;;;;;;;;;6251708;22;20098;-91
2022/12/05 01:50:25;;;;;;;20.98;11.23;;;;;;;;;;6225073;22;20012;-90
2022/12/05 01:52:51;;;;;;;15.73;10.55;;;;;;;;;;6225446;22;20016;-91
2022/12/05 01:55:18;;;;;;;19.23;10.57;;;;;;;;;;6250302;22;20065;-92
2022/12/05 01:57:45;;;;;;;15.07;10.48;;;;;;;;;;6224861;22;20055;-91
2022/12/05 02:00:13;;;;;;;18.00;10.50;;;;;;;;;;6224972;22;20016;-90
2022/12/05 02:02:45;;;;;;;13.77;9.38;;;;;;;;;;6225149;22;20027;-92
2022/12/05 02:05:16;;;;;;;13.35;8.27;;;;;;;;;;6224969;22;20022;-90
2022/12/05 02:07:43;;;;;;;16.75;9.85;;;;;;;;;;6224670;22;20022;-91
2022/12/05 02:10:11;;;;;;;16.83;10.60;;;;;;;;;;6250244;22;20019;-90
2022/12/05 02:12:38;;;;;;;15.10;8.30;;;;;;;;;;6225899;22;20054;-90
2022/12/05 02:15:04;;;;;;;15.38;8.90;;;;;;;;;;6224049;22;20077;-92
2022/12/05 02:17:33;;;;;;;15.05;8.30;;;;;;;;;;6225528;22;20065;-90
2022/12/05 02:20:04;;;;;;;14.57;8.95;;;;;;;;;;6249831;22;20019;-91
2022/12/05 02:22:49;;;;;;;11.48;7.97;;;;;;;;;;6224592;22;20034;-90
2022/12/05 02:25:15;;;;;;;16.27;8.25;;;;;;;;;;6224539;22;20012;-90
2022/12/05 02:27:41;;;;;;;12.88;8.07;;;;;;;;;;6224850;22;20016;-91
2022/12/05 02:30:07;;;;;;;14.77;8.45;;;;;;;;;;6225792;22;20312;-90
2022/12/05 02:32:46;;;;;;;11.68;8.07;;;;;;;;;;6249690;22;20022;-90
2022/12/05 02:35:32;;;;;;;11.63;8.15;;;;;;;;;;6224890;22;20099;-90
2022/12/05 02:38:05;;;;;;;12.98;7.28;;;;;;;;;;6224250;22;20012;-90
2022/12/05 02:40:31;;;;;;;12.57;7.35;;;;;;;;;;6224174;22;20047;-90
2022/12/05 02:43:03;;;;;;;10.13;7.30;;;;;;;;;;6224682;22;20019;-91
2022/12/05 02:45:32;;;;;;;12.20;7.13;;;;;;;;;;6224177;22;20020;-90
2022/12/05 02:47:59;;;;;;;10.00;7.15;;;;;;;;;;6224384;22;20452;-90
2022/12/05 02:50:28;;;;;;;10.27;7.38;;;;;;;;;;6224388;22;20452;-90
2022/12/05 02:52:57;;;;;;;12.27;6.57;;;;;;;;;;6225778;22;20018;-90
2022/12/05 02:55:24;;;;;;;10.82;7.70;;;;;;;;;;6224303;22;20019;-90
2022/12/05 02:57:52;;;;;;;11.23;7.07;;;;;;;;;;6224538;22;20015;-91
2022/12/05 03:00:18;;;;;;;14.18;7.82;;;;;;;;;;6224479;22;20045;-91
2022/12/05 03:02:44;;;;;;;9.25;6.93;;;;;;;;;;6225131;22;20375;-90
2022/12/05 03:05:10;;;;;;;9.95;7.00;;;;;;;;;;6225070;22;20340;-90
2022/12/05 03:07:37;;;;;;;9.75;7.00;;;;;;;;;;6224480;22;20092;-90
2022/12/05 03:10:06;;;;;;;8.55;6.10;;;;;;;;;;6224603;22;20090;-92
2022/12/05 03:12:35;;;;;;;10.52;7.10;;;;;;;;;;6224595;22;20094;-91
2022/12/05 03:15:04;;;;;;;11.82;6.72;;;;;;;;;;6224891;22;20020;-90
2022/12/05 03:18:03;;;;;;;11.23;7.25;;;;;;;;;;6224428;22;20094;-90
2022/12/05 03:20:33;;;;;;;12.27;6.32;;;;;;;;;;6104483;23;20017;-91
2022/12/05 03:23:05;;;;;;;9.00;6.40;;;;;;;;;;6129537;23;20076;-90
2022/12/05 03:25:46;;;;;;;9.95;7.00;;;;;;;;;;6128863;23;20458;-90
2022/12/05 03:28:18;;;;;;;11.40;6.82;;;;;;;;;;6130570;23;20009;-90
2022/12/05 03:30:47;;;;;;;9.85;6.28;;;;;;;;;;6130570;23;20105;-90
2022/12/05 03:33:17;;;;;;;8.75;6.32;;;;;;;;;;6130631;23;20063;-90
2022/12/05 03:35:47;;;;;;;11.02;6.28;;;;;;;;;;6130642;23;20021;-91
2022/12/05 03:38:14;;;;;;;8.48;5.90;;;;;;;;;;6131003;23;20013;-91
2022/12/05 03:40:44;;;;;;;10.98;5.63;;;;;;;;;;6130684;23;20018;-90
2022/12/05 03:43:14;;;;;;;8.82;6.30;;;;;;;;;;6130739;23;20072;-90
2022/12/05 03:45:49;;;;;;;9.20;5.97;;;;;;;;;;6130477;23;20064;-90
2022/12/05 03:48:20;;;;;;;11.00;5.97;;;;;;;;;;6130472;23;20421;-91
2022/12/05 03:50:47;;;;;;;7.75;6.20;;;;;;;;;;6130805;23;20018;-90
2022/12/05 03:53:19;;;;;;;7.93;5.45;;;;;;;;;;6130278;23;20018;-91
2022/12/05 03:55:49;;;;;;;14.55;6.32;;;;;;;;;;6138216;22;20096;-90
2022/12/05 03:58:18;;;;;;;8.65;5.78;;;;;;;;;;6225941;22;20046;-90
2022/12/05 04:00:46;;;;;;;10.38;6.57;;;;;;;;;;6225757;22;20444;-89
2022/12/05 04:03:21;;;;;;;11.35;7.15;;;;;;;;;;6251128;22;20043;-90
2022/12/05 04:05:50;;;;;;;9.65;6.45;;;;;;;;;;6251216;22;20019;-90
2022/12/05 04:08:20;;;;;;;10.90;6.53;;;;;;;;;;6226838;22;20012;-90
2022/12/05 04:10:47;;;;;;;10.88;7.32;;;;;;;;;;6227074;22;20046;-91
2022/12/05 04:13:34;;;;;;;11.13;7.45;;;;;;;;;;6225932;22;20019;-90
2022/12/05 04:19:08;;;;;;;11.57;7.53;;;;;;;;;;6250849;22;20463;-90
2022/12/05 04:21:40;;;;;;;10.15;6.68;;;;;;;;;;6225228;22;20022;-90
2022/12/05 04:27:05;;;;;;;12.95;7.55;;;;;;;;;;6250562;22;20062;-90
2022/12/05 04:29:35;;;;;;;14.98;7.30;;;;;;;;;;6226219;22;20050;-90
2022/12/05 04:32:06;;;;;;;11.65;7.63;;;;;;;;;;6225319;22;20016;-90
2022/12/05 04:34:33;;;;;;;9.75;6.82;;;;;;;;;;6225255;22;20019;-90
2022/12/05 04:37:06;;;;;;;10.80;6.82;;;;;;;;;;6225354;22;20098;-90
2022/12/05 04:39:32;;;;;;;11.20;6.60;;;;;;;;;;6225361;22;20479;-90
2022/12/05 04:42:01;;;;;;;14.30;7.10;;;;;;;;;;6225523;22;20012;-91
2022/12/05 04:44:29;;;;;;;12.57;7.20;;;;;;;;;;6251061;22;20094;-90
2022/12/05 04:46:56;;;;;;;12.00;7.22;;;;;;;;;;6225470;22;20449;-90
2022/12/05 04:49:24;;;;;;;12.48;7.45;;;;;;;;;;6225431;22;20072;-91
2022/12/05 04:51:52;;;;;;;12.85;7.13;;;;;;;;;;6225379;22;20077;-90
2022/12/05 04:54:28;;;;;;;13.65;6.95;;;;;;;;;;6225146;22;20055;-90
2022/12/05 04:56:59;;;;;;;12.45;6.53;;;;;;;;;;6225142;22;20015;-90
2022/12/05 04:59:25;;;;;;;11.32;6.93;;;;;;;;;;6226657;22;20324;-90
2022/12/05 05:01:54;;;;;;;14.88;7.35;;;;;;;;;;6250548;22;20058;-90
2022/12/05 05:04:23;;;;;;;10.07;6.53;;;;;;;;;;6225441;22;20082;-91
2022/12/05 05:06:49;;;;;;;14.18;8.00;;;;;;;;;;6225154;22;20102;-90
2022/12/05 05:09:15;;;;;;;9.77;6.45;;;;;;;;;;6250408;22;20448;-90
2022/12/05 05:11:41;;;;;;;17.13;7.85;;;;;;;;;;6225282;22;20329;-89
2022/12/05 05:14:07;;;;;;;15.48;8.15;;;;;;;;;;6225074;22;20022;-90
2022/12/05 05:16:36;;;;;;;16.17;7.25;;;;;;;;;;6250613;22;20020;-90
2022/12/05 05:19:02;;;;;;;11.88;7.18;;;;;;;;;;6225048;22;20452;-90
2022/12/05 05:21:35;;;;;;;14.25;8.02;;;;;;;;;;6224864;22;20070;-91
2022/12/05 05:24:02;;;;;;;11.43;7.00;;;;;;;;;;6250158;22;20023;-90
2022/12/05 05:26:28;;;;;;;14.93;7.15;;;;;;;;;;6225425;22;20011;-90
2022/12/05 05:28:55;;;;;;;13.95;7.55;;;;;;;;;;6225226;22;20015;-91
2022/12/05 05:31:21;;;;;;;13.20;7.38;;;;;;;;;;6250970;22;20090;-90
2022/12/05 05:33:48;;;;;;;15.55;8.30;;;;;;;;;;6250256;22;20015;-89
2022/12/05 05:36:14;;;;;;;14.85;8.20;;;;;;;;;;6250209;22;20018;-90
2022/12/05 05:38:42;;;;;;;14.68;7.93;;;;;;;;;;6224968;22;20063;-91
2022/12/05 05:41:14;;;;;;;12.75;7.85;;;;;;;;;;6224898;22;20016;-93
2022/12/05 05:43:43;;;;;;;12.45;7.28;;;;;;;;;;6252148;22;20090;-89
2022/12/05 05:46:16;;;;;;;14.15;7.88;;;;;;;;;;6251245;22;20097;-90
2022/12/05 05:48:42;;;;;;;10.23;7.13;;;;;;;;;;6277807;22;20016;-90
2022/12/05 05:51:10;;;;;;;15.02;7.32;;;;;;;;;;6225640;22;20015;-90
2022/12/05 05:53:36;;;;;;;12.13;7.65;;;;;;;;;;6225353;22;20090;-90
2022/12/05 05:56:09;;;;;;;13.80;7.63;;;;;;;;;;6225997;22;20069;-91
2022/12/05 05:58:36;;;;;;;11.68;6.93;;;;;;;;;;6226365;22;20020;-89
2022/12/05 06:01:06;;;;;;;10.25;7.60;;;;;;;;;;6225359;22;20015;-91
2022/12/05 06:03:32;;;;;;;19.67;8.52;;;;;;;;;;6225326;22;20015;-90
2022/12/05 06:05:59;;;;;;;17.85;8.00;;;;;;;;;;6225442;22;20012;-91
2022/12/05 06:08:28;;;;;;;10.55;6.15;;;;;;;;;;6225424;22;20020;-89
2022/12/05 06:10:54;;;;;;;11.00;6.97;;;;;;;;;;6225233;22;20015;-90
2022/12/05 06:13:20;;;;;;;12.48;6.97;;;;;;;;;;6225355;22;20016;-90
2022/12/05 06:15:47;;;;;;;13.23;7.32;;;;;;;;;;6225778;22;20077;-89
2022/12/05 06:18:13;;;;;;;10.75;6.72;;;;;;;;;;6226454;22;20019;-90
2022/12/05 06:20:39;;;;;;;19.65;7.22;;;;;;;;;;6225274;22;20019;-90
2022/12/05 06:23:05;;;;;;;7.93;6.10;;;;;;;;;;6225093;22;20015;-91
2022/12/05 06:25:31;;;;;;;15.00;7.05;;;;;;;;;;6251012;22;20094;-92
2022/12/05 06:27:57;;;;;;;10.43;6.18;;;;;;;;;;6225443;22;20011;-92
2022/12/05 06:30:23;;;;;;;11.50;6.10;;;;;;;;;;6252457;22;20118;-90
2022/12/05 06:32:49;;;;;;;10.27;6.20;;;;;;;;;;6225821;22;20020;-90
2022/12/05 06:35:15;;;;;;;16.55;6.28;;;;;;;;;;6251539;22;20022;-92
2022/12/05 06:37:42;;;;;;;13.20;6.57;;;;;;;;;;6224847;22;20448;-93
2022/12/05 06:40:09;;;;;;;11.02;6.30;;;;;;;;;;6250014;22;20421;-91
2022/12/05 06:42:35;;;;;;;10.77;6.88;;;;;;;;;;6250103;22;20441;-93
2022/12/05 06:45:01;;;;;;;12.38;6.70;;;;;;;;;;6225596;22;20012;-90
2022/12/05 06:47:27;;;;;;;11.15;6.47;;;;;;;;;;6225802;22;20061;-92
2022/12/05 06:49:53;;;;;;;18.30;7.32;;;;;;;;;;6225125;22;20054;-92
2022/12/05 06:52:19;;;;;;;10.23;6.63;;;;;;;;;;6225636;22;20019;-92
2022/12/05 06:54:46;;;;;;;12.93;6.43;;;;;;;;;;6224451;22;20019;-92
2022/12/05 06:57:12;;;;;;;10.45;6.10;;;;;;;;;;6224994;22;20019;-91
2022/12/05 06:59:38;;;;;;;11.13;6.70;;;;;;;;;;6250460;22;20098;-92
2022/12/05 07:02:06;;;;;;;10.75;6.18;;;;;;;;;;6226226;22;20020;-91
2022/12/05 07:04:33;;;;;;;13.30;6.97;;;;;;;;;;6227936;22;20076;-92
2022/12/05 07:07:01;;;;;;;11.68;6.53;;;;;;;;;;6228137;22;20015;-91
2022/12/05 07:09:47;;;;;;;11.13;7.07;;;;;;;;;;6226781;22;20022;-90
2022/12/05 07:12:17;;;;;;;14.18;8.00;;;;;;;;;;6227909;22;20012;-92
2022/12/05 07:14:44;;;;;;;10.57;6.22;;;;;;;;;;6226596;22;20016;-90
2022/12/05 07:17:10;;;;;;;12.02;8.02;;;;;;;;;;6204387;23;20020;-90
2022/12/05 07:19:36;;;;;;;18.63;7.82;;;;;;;;;;6221190;23;20062;-90
2022/12/05 07:22:02;;;;;;;16.55;8.27;;;;;;;;;;6196731;23;20071;-91
2022/12/05 07:24:28;;;;;;;16.25;7.70;;;;;;;;;;6222907;23;20052;-91
2022/12/05 07:26:55;;;;;;;10.48;6.88;;;;;;;;;;6196269;23;20016;-91
2022/12/05 07:29:21;;;;;;;17.75;7.63;;;;;;;;;;6196589;23;20016;-91
2022/12/05 07:31:47;;;;;;;11.35;6.75;;;;;;;;;;6221826;23;20012;-91
2022/12/05 07:34:13;;;;;;;19.65;7.68;;;;;;;;;;6196469;23;20510;-91
2022/12/05 07:36:39;;;;;;;10.45;6.88;;;;;;;;;;6222118;23;20436;-92
2022/12/05 07:39:05;;;;;;;11.77;7.35;;;;;;;;;;6197760;23;20020;-92
2022/12/05 07:41:33;;;;;;;14.90;7.53;;;;;;;;;;6196905;23;20062;-91
2022/12/05 07:44:00;;;;;;;16.15;7.03;;;;;;;;;;6195949;23;20030;-90
2022/12/05 07:46:27;;;;;;;11.95;6.50;;;;;;;;;;6196148;23;20019;-90
2022/12/05 07:48:53;;;;;;;10.13;6.30;;;;;;;;;;6195840;23;20027;-93
2022/12/05 07:51:20;;;;;;;14.00;7.13;;;;;;;;;;6196923;23;20038;-91
2022/12/05 07:53:47;;;;;;;13.90;6.70;;;;;;;;;;6220909;23;20074;-90
2022/12/05 07:56:15;;;;;;;15.27;7.10;;;;;;;;;;6195929;23;20012;-92
2022/12/05 07:58:42;;;;;;;10.25;5.57;;;;;;;;;;6197312;23;20323;-92
2022/12/05 08:01:12;;;;;;;10.32;6.35;;;;;;;;;;6196439;23;20012;-90
2022/12/05 08:03:38;;;;;;;18.23;6.65;;;;;;;;;;6197368;23;20051;-92
2022/12/05 08:06:05;;;;;;;14.05;7.22;;;;;;;;;;6195827;23;20389;-91
2022/12/05 08:08:32;;;;;;;16.83;7.32;;;;;;;;;;6196922;23;20058;-90
2022/12/05 08:11:02;;;;;;;11.50;6.50;;;;;;;;;;6195748;23;20012;-89
2022/12/05 08:13:29;;;;;;;10.93;6.47;;;;;;;;;;6194957;23;20020;-91
2022/12/05 08:15:55;;;;;;;18.85;6.30;;;;;;;;;;6227098;22;20011;-91
2022/12/05 08:18:21;;;;;;;15.63;5.93;;;;;;;;;;6250800;22;20066;-92
2022/12/05 08:20:47;;;;;;;10.27;5.72;;;;;;;;;;6225679;22;20016;-93
2022/12/05 08:23:14;;;;;;;9.68;6.03;;;;;;;;;;6226739;22;20015;-91
2022/12/05 08:25:43;;;;;;;12.70;5.60;;;;;;;;;;6225799;22;20051;-94
2022/12/05 08:28:09;;;;;;;18.35;7.32;;;;;;;;;;6226365;22;20027;-94
2022/12/05 08:30:36;;;;;;;15.55;7.22;;;;;;;;;;6226117;22;20015;-93
2022/12/05 08:33:06;;;;;;;13.68;6.18;;;;;;;;;;6225341;22;20018;-93
2022/12/05 08:35:36;;;;;;;12.77;5.18;;;;;;;;;;6225320;22;20020;-93
2022/12/05 08:38:04;;;;;;;16.70;6.55;;;;;;;;;;6225455;22;20023;-89
2022/12/05 08:40:33;;;;;;;10.70;6.25;;;;;;;;;;6226568;22;20023;-91
2022/12/05 08:42:59;;;;;;;12.93;7.05;;;;;;;;;;6225658;22;20448;-92
2022/12/05 08:45:25;;;;;;;16.88;7.43;;;;;;;;;;6250900;22;20020;-93
2022/12/05 08:47:51;;;;;;;14.05;6.53;;;;;;;;;;6225527;22;20007;-92
2022/12/05 08:50:17;;;;;;;13.85;7.22;;;;;;;;;;6251037;22;20055;-90
2022/12/05 08:52:44;;;;;;;14.57;7.50;;;;;;;;;;6225848;22;20016;-93
2022/12/05 08:55:10;;;;;;;20.23;7.80;;;;;;;;;;6225753;22;20420;-92
2022/12/05 08:57:36;;;;;;;13.35;6.30;;;;;;;;;;6225703;22;20012;-92
2022/12/05 09:00:02;;;;;;;18.25;7.13;;;;;;;;;;6250945;22;20495;-92
2022/12/05 09:02:28;;;;;;;11.25;5.95;;;;;;;;;;6226113;22;20022;-92
2022/12/05 09:04:54;;;;;;;12.60;6.97;;;;;;;;;;6226264;22;20019;-91
2022/12/05 09:07:20;;;;;;;12.57;6.85;;;;;;;;;;6225723;22;20095;-90
2022/12/05 09:09:46;;;;;;;14.80;7.40;;;;;;;;;;6250876;22;20022;-90
2022/12/05 09:12:13;;;;;;;15.82;8.45;;;;;;;;;;6225545;22;20509;-92
2022/12/05 09:14:39;;;;;;;20.50;8.00;;;;;;;;;;6225647;22;20019;-91
2022/12/05 09:17:06;;;;;;;14.88;7.95;;;;;;;;;;6225194;22;20020;-90
2022/12/05 09:19:32;;;;;;;14.57;8.27;;;;;;;;;;6250770;22;20102;-89
2022/12/05 09:21:58;;;;;;;17.15;7.78;;;;;;;;;;6225033;22;20046;-90
2022/12/05 09:24:24;;;;;;;16.55;8.38;;;;;;;;;;6226591;22;20012;-93
2022/12/05 09:26:50;;;;;;;17.65;8.07;;;;;;;;;;6225429;22;20015;-90
2022/12/05 09:29:17;;;;;;;11.07;7.40;;;;;;;;;;6250904;22;20015;-90
2022/12/05 09:31:43;;;;;;;17.17;8.05;;;;;;;;;;6227300;22;20107;-91
2022/12/05 09:34:10;;;;;;;14.75;7.68;;;;;;;;;;6227311;22;20020;-93
2022/12/05 09:36:36;;;;;;;16.98;8.50;;;;;;;;;;6251962;22;20016;-91
2022/12/05 09:39:04;;;;;;;14.73;9.13;;;;;;;;;;6227776;22;20149;-91
2022/12/05 09:42:06;;;;;;;11.77;6.78;;;;;;;;;;6228023;22;20011;-90
2022/12/05 09:44:36;;;;;;;17.92;7.70;;;;;;;;;;6228137;22;20443;-90
2022/12/05 09:47:06;;;;;;;15.13;7.30;;;;;;;;;;6229261;22;20016;-90
2022/12/05 09:49:34;;;;;;;18.80;7.07;;;;;;;;;;6227581;22;20015;-90
2022/12/05 09:52:01;;;;;;;19.27;7.32;;;;;;;;;;6228849;22;20069;-90
2022/12/05 09:54:28;;;;;;;13.48;7.80;;;;;;;;;;6228287;22;20436;-89
2022/12/05 09:56:54;;;;;;;14.63;7.25;;;;;;;;;;6227806;22;20015;-90
2022/12/05 09:59:20;;;;;;;24.60;8.23;;;;;;;;;;6227912;22;20020;-90
2022/12/05 10:01:57;;;;;;;13.10;7.60;;;;;;;;;;6228641;22;20095;-89
2022/12/05 10:04:33;;;;;;;14.25;8.10;;;;;;;;;;6228638;22;20020;-89
2022/12/05 10:07:02;;;;;;;13.88;7.25;;;;;;;;;;6227927;22;20063;-91
2022/12/05 10:10:07;;;;;;;10.48;6.35;;;6.00;99.90;;;;;;6252963;22;20460;-91
2022/12/05 10:12:33;;;;;;;11.82;6.90;;;;;;;;;;6228221;22;20015;-90
2022/12/05 10:15:15;;;;;;;15.73;7.65;;;;;;;;;;6227781;22;20016;-91
2022/12/05 10:17:43;;;;;;;20.77;7.57;;;;;;;;;;6228120;22;20019;-91
2022/12/05 10:20:24;;;;;;;18.10;7.07;;;;;;;;;;6228731;22;20023;-90
2022/12/05 10:22:54;;;;;;;20.98;7.35;;;;;;;;;;6229664;22;20328;-92
2022/12/05 10:25:21;;;;;;;11.93;7.57;;;;;;;;;;6228502;22;20344;-91
2022/12/05 10:27:52;;;;;;;16.55;7.68;;;;;;;;;;6226816;22;20441;-92
2022/12/05 10:30:20;;;;;;;15.45;7.55;;;;;;;;;;6226769;22;20512;-90
2022/12/05 10:32:51;;;;;;;18.50;8.15;;;;;;;;;;6227230;22;20501;-91
2022/12/05 10:35:17;;;;;;;16.00;8.25;;;;;;;;;;6226259;22;20460;-90
2022/12/05 10:37:46;;;;;;;15.55;9.15;;;;;;;;;;6253607;22;20016;-89
2022/12/05 10:40:12;;;;;;;20.13;7.95;;;;;;;;;;6252831;22;20020;-90
2022/12/05 10:42:38;;;;;;;15.55;8.68;;;;;;;;;;6229752;22;20102;-89
2022/12/05 10:45:06;;;;;;;12.35;7.32;;;;;;;;;;6229261;22;20015;-90
2022/12/05 10:47:44;;;;;;;12.23;7.78;;;;;;;;;;6255021;22;20019;-93
2022/12/05 10:50:41;;;;;;;14.10;7.20;;;;;;;;;;6223107;23;20016;-94
2022/12/05 10:53:15;;;;;;;11.15;6.82;;;;;;;;;;6247801;23;20016;-93
2022/12/05 10:55:46;;;;;;;11.35;6.97;;;;;;;;;;6196859;23;20016;-91
2022/12/05 10:58:16;;;;;;;14.38;7.45;;;;;;;;;;6197060;23;20027;-92
2022/12/05 11:00:45;;;;;;;12.65;7.70;;;;;;;;;;6197667;23;20048;-92
2022/12/05 11:03:24;;;;;;;12.55;7.47;;;;;;;;;;6196813;23;20023;-91
2022/12/05 11:05:51;;;;;;;13.68;6.82;;;;;;;;;;6196548;23;20012;-92
2022/12/05 11:08:24;;;;;;;14.00;6.57;;;;;;;;;;6195658;23;20012;-92
2022/12/05 11:11:00;;;;;;;16.90;7.13;;;;;;;;;;6195854;23;20086;-92
2022/12/05 11:13:26;;;;;;;12.38;5.53;;;;;;;;;;6195907;23;20016;-92
2022/12/05 11:15:52;;;;;;;13.18;6.68;;;;;;;;;;6245604;23;20012;-92
2022/12/05 11:18:24;;;;;;;10.82;7.47;;;;;;;;;;6220604;23;20024;-92
2022/12/05 11:20:51;;;;;;;15.85;8.27;;;;;;;;;;6207401;22;20011;-91
2022/12/05 11:23:29;;;;;;;11.07;6.68;;;;;;;;;;6228127;22;20020;-92
2022/12/05 11:25:56;;;;;;;12.65;7.13;;;;;;;;;;6227458;22;20016;-91
2022/12/05 11:28:24;;;;;;;10.25;6.28;;;;;;;;;;6228010;22;20506;-92
2022/12/05 11:31:01;;;;;;;14.02;7.07;;;;;;;;;;6253342;22;20019;-91
2022/12/05 11:33:28;;;;;;;12.82;6.10;;;;;;;;;;6227121;22;20095;-91
2022/12/05 11:35:56;;;;;;;12.65;6.70;;;;;;;;;;6251975;22;20022;-91
2022/12/05 11:38:26;;;;;;;12.48;7.22;;;;;;;;;;6226854;22;20012;-91
2022/12/05 11:40:54;;;;;;;9.35;6.13;;;;;;;;;;6227084;22;20521;-91
2022/12/05 11:43:46;;;;;;;11.77;6.07;;;;;;;;;;6226624;22;20015;-91
2022/12/05 11:46:53;;;;;;;8.63;5.35;;;;;;;;;;6227308;22;20015;-93
2022/12/05 11:49:35;;;;;;;10.73;5.15;;;;;;;;;;6106958;23;20080;-93
2022/12/05 11:52:13;;;;;;;9.50;6.18;;;;;;;;;;6131890;23;20023;-93
2022/12/05 11:54:52;;;;;;;10.65;5.22;;;;;;;;;;6131683;23;20076;-93
2022/12/05 11:57:24;;;;;;;9.07;5.05;;;;;;;;;;6130954;23;20020;-93
2022/12/05 12:00:06;;;;;;;13.35;5.03;;;;;;;;;;6130949;23;20343;-92
2022/12/05 12:02:38;;;;;;;11.98;5.10;;;;;;;;;;6131298;23;20052;-92
2022/12/05 12:05:14;;;;;;;11.73;4.63;;;;;;;;;;6131429;23;20022;-93
2022/12/05 12:07:45;;;;;;;7.65;4.53;;;;;;;;;;6131053;23;20343;-92
2022/12/05 12:10:50;;;;;;;12.07;4.20;;;;;;;;;;6131067;23;20017;-93
2022/12/05 12:13:24;;;;;;;14.52;5.50;;;;;;;;;;6072805;23;20022;-93
2022/12/05 12:16:04;;;;;;;7.20;4.50;;;;;;;;;;6096860;23;20100;-92
2022/12/05 12:18:43;;;;;;;5.15;3.72;;;;;;;;;;6072295;23;20026;-93
2022/12/05 12:21:24;;;;;;;7.20;4.68;;;;;;;;;;6125017;23;20014;-93
2022/12/05 12:24:22;;;;;;;7.65;4.15;;;5.90;99.90;;;;;;6101084;23;20044;-92
2022/12/05 12:27:08;;;;;;;7.72;3.88;;;;;;;;;;6076994;23;20026;-93
2022/12/05 12:29:48;;;;;;;5.18;3.85;;;;;;;;;;6102473;23;20368;-93
2022/12/05 12:32:26;;;;;;;4.88;3.22;;;;;;;;;;6102302;23;20058;-92
2022/12/05 12:35:03;;;;;;;10.65;3.97;;;;;;;;;;6102913;23;20109;-92
2022/12/05 12:37:42;;;;;;;6.03;3.47;;;;;;;;;;6109413;22;20053;-93
2022/12/05 12:40:21;;;;;;;3.72;2.95;;;;;;;;;;6227660;22;20020;-92
2022/12/05 12:43:06;;;;;;;5.53;3.13;;;;;;;;;;6227221;22;20015;-92
2022/12/05 12:45:46;;;;;;;5.95;3.45;;;;;;;;;;6227894;22;20016;-93
2022/12/05 12:48:19;;;;;;;9.10;3.25;;;;;;;;;;6229182;22;20043;-93
2022/12/05 12:50:51;;;;;;;4.05;2.92;;;;;;;;;;6253188;22;20084;-92
2022/12/05 12:53:26;;;;;;;11.30;3.92;;;;;;;;;;6227394;22;20068;-93
2022/12/05 12:56:00;;;;;;;3.53;2.88;;;;;;;;;;6252601;22;20016;-90
2022/12/05 12:58:29;;;;;;;5.30;3.28;;;;;;;;;;6227691;22;20016;-92
2022/12/05 13:01:22;;;;;;;8.48;3.05;;;;;;;;;;6226589;22;20320;-91
2022/12/05 13:03:51;;;;;;;4.93;2.88;;;;;;;;;;6106576;23;20018;-91
2022/12/05 13:06:29;;;;;;;6.32;2.90;;;;;;;;;;6131317;23;20055;-91
2022/12/05 13:09:02;;;;;;;8.02;3.95;;;;;;;;;;6131108;23;20018;-92
2022/12/05 13:11:33;;;;;;;4.43;3.35;;;;;;;;;;6131480;23;20014;-92
2022/12/05 13:14:01;;;;;;;9.30;3.03;;;;;;;;;;6130911;23;20044;-91
2022/12/05 13:16:32;;;;;;;5.47;2.95;;;;;;;;;;6130786;23;20049;-90
2022/12/05 13:18:58;;;;;;;7.80;3.58;;;;;;;;;;6130666;23;20049;-89
2022/12/05 13:21:25;;;;;;;7.45;2.85;;;;;;;;;;6130904;23;20018;-90
2022/12/05 13:23:54;;;;;;;5.85;3.03;;;;;;;;;;6131166;23;20122;-91
2022/12/05 13:26:22;;;;;;;11.45;3.83;;;;;;;;;;6131727;23;20362;-91
2022/12/05 13:28:59;;;;;;;7.45;3.75;;;;;;;;;;6131433;23;20056;-90
2022/12/05 13:31:41;;;;;;;4.63;3.33;;;;;;;;;;6131140;23;20072;-90
2022/12/05 13:34:26;;;;;;;8.70;4.00;;;;;;;;;;6131314;23;20017;-90
2022/12/05 13:42:26;;;;;;;6.90;3.75;;;;;;;;;;6251431;22;20027;-90
2022/12/05 13:45:05;;;;;;;5.88;3.83;;;;;;;;;;6252088;22;20016;-90
2022/12/05 13:47:31;;;;;;;10.43;3.88;;;;;;;;;;6250458;22;20448;-90
2022/12/05 13:50:03;;;;;;;7.55;3.67;;;;;;;;;;6225310;22;20020;-90
2022/12/05 13:52:30;;;;;;;4.47;3.17;;;;;;;;;;6251347;22;20332;-90
2022/12/05 13:55:00;;;;;;;6.68;3.47;;;;;;;;;;6250178;22;20026;-90
2022/12/05 13:57:39;;;;;;;6.97;3.30;;;;;;;;;;6226355;22;20015;-89
2022/12/05 14:00:08;;;;;;;7.85;3.55;;;;;;;;;;6225214;22;20069;-90
2022/12/05 14:02:41;;;;;;;10.30;3.92;;;;;;;;;;6250996;22;20037;-90
2022/12/05 14:05:13;;;;;;;12.23;3.88;;;;;;;;;;6225736;22;20077;-90
2022/12/05 14:07:42;;;;;;;6.55;3.72;;;;;;;;;;6251149;22;20103;-91
2022/12/05 14:10:10;;;;;;;8.48;3.92;;;;;;;;;;6225079;22;20027;-90
2022/12/05 14:12:48;;;;;;;7.55;3.50;;;;;;;;;;6224914;22;20348;-90
2022/12/05 14:15:27;;;;;;;11.00;3.85;;;;;;;;;;6226269;22;20016;-90
2022/12/05 14:18:15;;;;;;;5.63;3.33;;;5.90;99.90;;;;;;6197508;23;20016;-90
2022/12/05 14:20:47;;;;;;;12.40;4.03;;;;;;;;;;6220590;23;20016;-90
2022/12/05 14:23:19;;;;;;;12.82;3.65;;;;;;;;;;6194969;23;20020;-89
2022/12/05 14:26:03;;;;;;;8.38;3.65;;;;;;;;;;6194469;23;20024;-89
2022/12/05 14:28:45;;;;;;;10.15;3.83;;;;;;;;;;6219741;23;20030;-89
2022/12/05 14:31:26;;;;;;;7.95;3.90;;;;;;;;;;6195395;23;20376;-91
2022/12/05 14:34:11;;;;;;;10.50;3.85;;;;;;;;;;6220472;23;20016;-91
2022/12/05 14:36:39;;;;;;;7.63;3.95;;;;;;;;;;6219944;23;20065;-92
2022/12/05 14:39:38;;;;;;;8.55;3.63;;;;;;;;;;6219804;23;20023;-91
2022/12/05 14:42:07;;;;;;;7.15;3.38;;;;;;;;;;6104513;23;20133;-89
2022/12/05 14:44:33;;;;;;;10.23;4.22;;;;;;;;;;6104598;23;20394;-90
2022/12/05 14:47:02;;;;;;;12.18;6.25;;;;;;;;;;6104591;23;20025;-90
2022/12/05 14:49:34;;;;;;;9.50;5.70;;;;;;;;;;6104918;23;20022;-89
2022/12/05 14:52:02;;;;;;;12.18;5.22;;;;;;;;;;6105364;23;20125;-90
2022/12/05 14:54:30;;;;;;;5.25;3.75;;;;;;;;;;6104339;23;20022;-90
2022/12/05 14:57:03;;;;;;;7.30;3.60;;;;;;;;;;6153267;23;20080;-90
2022/12/05 14:59:31;;;;;;;9.52;4.35;;;;;;;;;;6104459;23;20014;-89
2022/12/05 15:02:01;;;;;;;7.25;3.67;;;;;;;;;;6105245;23;20018;-89